createdAt,value
2023-04-10T00:02:05.520Z,49.4
2023-04-10T00:07:24.111Z,48.9
2023-04-10T00:12:42.657Z,48.4
2023-04-10T00:18:01.033Z,49.2
2023-04-10T00:23:19.248Z,49
2023-04-10T00:28:37.429Z,48.3
2023-04-10T00:33:56.467Z,49.2
2023-04-10T00:39:14.974Z,48.3
2023-04-10T00:44:33.109Z,48.3
2023-04-10T00:49:51.487Z,49.2
2023-04-10T00:55:09.819Z,48.4
2023-04-10T01:00:28.417Z,48.7
2023-04-10T01:05:46.985Z,48.7
2023-04-10T01:11:05.095Z,49.4
2023-04-10T01:16:23.332Z,49.2
2023-04-10T01:21:41.403Z,48.8
2023-04-10T01:26:59.601Z,49.3
2023-04-10T01:32:18.132Z,48.8
2023-04-10T01:37:36.717Z,48.6
2023-04-10T01:42:54.868Z,49.5
2023-04-10T01:48:13.235Z,48.7
2023-04-10T01:53:31.432Z,49
2023-04-10T01:58:49.730Z,49.1
2023-04-10T02:04:07.994Z,49
2023-04-10T02:09:10.927Z,48.7
2023-04-10T02:14:29.496Z,49.2
2023-04-10T02:19:47.483Z,48.4
2023-04-10T02:25:05.703Z,48.6
2023-04-10T02:30:24.323Z,49.2
2023-04-10T02:35:42.742Z,48.4
2023-04-10T02:41:01.174Z,49.1
2023-04-10T02:46:19.726Z,48.4
2023-04-10T02:51:38.167Z,49.2
2023-04-10T02:56:56.522Z,49.3
2023-04-10T03:02:15.306Z,48.6
2023-04-10T03:07:33.598Z,48.3
2023-04-10T03:12:51.899Z,48.3
2023-04-10T03:18:10.366Z,48.9
2023-04-10T03:23:28.370Z,48.7
2023-04-10T03:28:46.591Z,48.5
2023-04-10T03:34:04.799Z,48.5
2023-04-10T03:39:23.161Z,48.3
2023-04-10T03:44:41.774Z,49.1
2023-04-10T03:50:00.133Z,48.5
2023-04-10T03:55:18.573Z,47.8
2023-04-10T04:00:36.792Z,48.1
2023-04-10T04:05:55.149Z,47.5
2023-04-10T04:11:13.609Z,47.8
2023-04-10T04:16:32.037Z,47.5
2023-04-10T04:21:50.530Z,48
2023-04-10T04:27:08.877Z,47.8
2023-04-10T04:32:27.342Z,47.3
2023-04-10T04:37:45.674Z,48.4
2023-04-10T04:43:04.242Z,47.6
2023-04-10T04:48:22.821Z,45.7
2023-04-10T04:53:41.186Z,47.6
2023-04-10T04:58:59.530Z,48.2
2023-04-10T05:04:18.279Z,46.9
2023-04-10T05:09:36.640Z,47.7
2023-04-10T05:14:55.377Z,47.1
2023-04-10T05:25:46.007Z,47.1
2023-04-10T05:31:04.439Z,48
2023-04-10T05:36:23.408Z,47.7
2023-04-10T05:41:41.748Z,47.9
2023-04-10T05:46:59.908Z,47.1
2023-04-10T05:52:18.121Z,47.1
2023-04-10T05:57:36.501Z,47.1
2023-04-10T06:02:55.288Z,47.8
2023-04-10T06:08:13.486Z,47
2023-04-10T06:13:31.857Z,47.1
2023-04-10T06:18:50.400Z,47.7
2023-04-10T06:23:54.846Z,47.2
2023-04-10T06:29:13.496Z,47.7
2023-04-10T06:34:31.687Z,47.8
2023-04-10T06:39:49.871Z,46.9
2023-04-10T06:45:08.116Z,46.9
2023-04-10T06:50:26.815Z,46.9
2023-04-10T06:55:45.157Z,47
2023-04-10T07:06:31.630Z,47
2023-04-10T07:11:49.979Z,47.4
2023-04-10T07:17:08.505Z,47.4
2023-04-10T07:22:26.855Z,46.7
2023-04-10T07:27:45.252Z,47.4
2023-04-10T07:33:04.075Z,46.6
2023-04-10T07:38:22.768Z,46.6
2023-04-10T07:43:40.979Z,46.4
2023-04-10T07:48:59.658Z,47.2
2023-04-10T07:54:18.060Z,47.3
2023-04-10T07:59:36.563Z,46.5
2023-04-10T08:04:55.502Z,47.2
2023-04-10T08:10:15.602Z,46.2
2023-04-10T08:15:33.954Z,46.5
2023-04-10T08:20:52.340Z,46.6
2023-04-10T08:26:10.363Z,46.5
2023-04-10T08:31:29.637Z,47.5
2023-04-10T08:36:48.673Z,47.1
2023-04-10T08:42:07.071Z,47.2
2023-04-10T08:47:25.576Z,46.5
2023-04-10T08:52:43.990Z,47.1
2023-04-10T08:58:02.741Z,46.4
2023-04-10T09:03:21.323Z,47.2
2023-04-10T09:08:39.617Z,47.1
2023-04-10T09:14:00.545Z,46.5
2023-04-10T09:19:18.909Z,46.6
2023-04-10T09:24:22.305Z,47.1
2023-04-10T09:29:40.683Z,46.3
2023-04-10T09:34:58.909Z,46.8
2023-04-10T09:40:17.279Z,46.4
2023-04-10T09:45:37.285Z,47
2023-04-10T09:50:59.307Z,46.8
2023-04-10T09:56:18.680Z,46.2
2023-04-10T10:01:21.593Z,46.8
2023-04-10T10:06:40.322Z,46.9
2023-04-10T10:11:58.647Z,46.9
2023-04-10T10:17:17.021Z,46.7
2023-04-10T10:22:35.217Z,46
2023-04-10T10:27:53.571Z,46.1
2023-04-10T10:33:12.358Z,46.6
2023-04-10T10:38:30.698Z,45.9
2023-04-10T10:43:49.566Z,46.1
2023-04-10T10:49:08.234Z,46.6
2023-04-10T10:54:26.765Z,46.3
2023-04-10T10:59:45.277Z,46
2023-04-10T11:05:03.529Z,45.9
2023-04-10T11:10:21.883Z,46.6
2023-04-10T11:15:40.405Z,45.9
2023-04-10T11:20:58.923Z,46
2023-04-10T11:26:17.537Z,45.9
2023-04-10T11:31:35.922Z,46.7
2023-04-10T11:36:54.144Z,46.7
2023-04-10T11:42:12.299Z,46.5
2023-04-10T11:47:30.772Z,46.7
2023-04-10T11:52:49.233Z,46
2023-04-10T11:58:08.104Z,46.7
2023-04-10T12:03:27.005Z,46
2023-04-10T12:08:45.450Z,46.2
2023-04-10T12:14:03.901Z,46.4
2023-04-10T12:19:22.283Z,46.6
2023-04-10T12:24:40.682Z,46.7
2023-04-10T12:29:58.838Z,45.9
2023-04-10T12:35:17.365Z,46.4
2023-04-10T12:40:36.018Z,46.1
2023-04-10T12:45:38.694Z,46.1
2023-04-10T12:50:57.036Z,46.7
2023-04-10T12:56:15.386Z,46.1
2023-04-10T13:01:33.780Z,46.2
2023-04-10T13:06:52.150Z,46.8
2023-04-10T13:12:11.513Z,46
2023-04-10T13:17:30.861Z,46.1
2023-04-10T13:22:49.077Z,46
2023-04-10T13:28:09.643Z,46.8
2023-04-10T13:33:27.792Z,46
2023-04-10T13:38:46.334Z,46.4
2023-04-10T13:44:05.182Z,46.2
2023-04-10T13:49:27.845Z,46.5
2023-04-10T13:54:49.103Z,46.5
2023-04-10T14:00:10.236Z,46.3
2023-04-10T14:05:29.302Z,46.9
2023-04-10T14:10:50.606Z,46.8
2023-04-10T14:16:10.576Z,46.8
2023-04-10T14:21:29.082Z,46.9
2023-04-10T14:26:47.540Z,46.1
2023-04-10T14:32:06.095Z,47.1
2023-04-10T14:37:24.218Z,46.1
2023-04-10T14:42:42.776Z,46.5
2023-04-10T14:48:01.412Z,46.3
2023-04-10T14:53:19.813Z,47
2023-04-10T14:58:38.197Z,46.2
2023-04-10T15:03:57.539Z,45.4
2023-04-10T15:09:15.898Z,45.7
2023-04-10T15:14:33.876Z,46
2023-04-10T15:19:52.172Z,47
2023-04-10T15:25:10.605Z,46.8
2023-04-10T15:30:39.114Z,46.8
2023-04-10T15:35:58.952Z,46.9
2023-04-10T15:41:17.569Z,46.5
2023-04-10T15:46:35.835Z,47.3
2023-04-10T15:51:54.033Z,47.2
2023-04-10T15:57:12.588Z,46.6
2023-04-10T16:02:31.429Z,47.5
2023-04-10T16:07:49.997Z,46.6
2023-04-10T16:13:08.144Z,47.4
2023-04-10T16:18:26.707Z,47.3
2023-04-10T16:23:45.088Z,47
2023-04-10T16:29:03.155Z,46.5
2023-04-10T16:34:21.341Z,47
2023-04-10T16:39:39.543Z,45.3
2023-04-10T16:44:58.963Z,46.2
2023-04-10T16:50:02.819Z,44.8
2023-04-10T16:55:21.409Z,44.5
2023-04-10T17:00:40.673Z,45.6
2023-04-10T17:05:58.873Z,45.4
2023-04-10T17:11:17.844Z,42.2
2023-04-10T17:16:36.468Z,43
2023-04-10T17:21:55.091Z,43.8
2023-04-10T17:27:13.307Z,44.3
2023-04-10T17:32:31.686Z,45.7
2023-04-10T17:37:50.078Z,45.9
2023-04-10T17:43:08.508Z,45.6
2023-04-10T17:48:26.807Z,45.7
2023-04-10T17:53:45.183Z,47.6
2023-04-10T17:59:03.873Z,47.3
2023-04-10T18:04:22.152Z,46.6
2023-04-10T18:09:40.649Z,47.4
2023-04-10T18:14:59.083Z,47.7
2023-04-10T18:20:17.476Z,47.6
2023-04-10T18:25:35.961Z,47.4
2023-04-10T18:30:54.387Z,48
2023-04-10T18:36:13.077Z,47.2
2023-04-10T18:41:31.265Z,47.9
2023-04-10T18:47:05.504Z,47.2
2023-04-10T18:52:24.138Z,48
2023-04-10T18:57:42.133Z,48.4
2023-04-10T19:03:01.060Z,48.1
2023-04-10T19:08:19.450Z,48.1
2023-04-10T19:13:38.181Z,47.2
2023-04-10T19:18:57.683Z,48.4
2023-04-10T19:24:16.221Z,48.1
2023-04-10T19:29:34.354Z,47.3
2023-04-10T19:34:52.868Z,47.3
2023-04-10T19:40:11.438Z,47.1
2023-04-10T19:45:14.244Z,47
2023-04-10T19:50:17.217Z,47.8
2023-04-10T19:55:35.379Z,47.4
2023-04-10T20:00:53.940Z,47.1
2023-04-10T20:06:12.741Z,47
2023-04-10T20:11:31.206Z,47.1
2023-04-10T20:16:49.330Z,47.3
2023-04-10T20:22:07.806Z,47.9
2023-04-10T20:27:25.991Z,47.7
2023-04-10T20:32:44.121Z,47.8
2023-04-10T20:38:02.648Z,47.2
2023-04-10T20:43:20.996Z,47.5
2023-04-10T20:48:39.137Z,47.2
2023-04-10T20:53:57.732Z,47.3
2023-04-10T20:59:16.804Z,46.9
2023-04-10T21:04:35.207Z,47.8
2023-04-10T21:09:53.639Z,48.2
2023-04-10T21:15:11.741Z,47.9
2023-04-10T21:20:30.140Z,48
2023-04-10T21:25:48.511Z,48.3
2023-04-10T21:31:07.150Z,48.5
2023-04-10T21:36:25.371Z,48.7
2023-04-10T21:41:43.680Z,49
2023-04-10T21:47:02.015Z,48.9
2023-04-10T21:52:20.475Z,49
2023-04-10T21:57:38.463Z,49.7
2023-04-10T22:02:57.723Z,49.3
2023-04-10T22:08:16.196Z,49.2
2023-04-10T22:13:34.562Z,50.1
2023-04-10T22:18:53.823Z,49.5
2023-04-10T22:24:12.447Z,49.2
2023-04-10T22:29:30.855Z,49.1
2023-04-10T22:34:49.053Z,49.7
2023-04-10T22:40:07.445Z,49.7
2023-04-10T22:45:25.635Z,47.2
2023-04-10T22:50:43.602Z,48.4
2023-04-10T22:56:02.168Z,48.7
2023-04-10T23:01:20.511Z,48.4
2023-04-10T23:06:38.894Z,48.9
2023-04-10T23:11:57.308Z,48.6
2023-04-10T23:17:15.680Z,48.8
2023-04-10T23:22:33.806Z,48.8
2023-04-10T23:27:52.415Z,49
2023-04-10T23:33:10.465Z,48.4
2023-04-10T23:38:28.600Z,48.6
2023-04-10T23:43:46.744Z,49.1
2023-04-10T23:49:05.379Z,49.1
2023-04-10T23:54:23.968Z,48.5
2023-04-10T23:59:42.394Z,48.4
